sensor_id;sensor_type;location;lat;lon;timestamp;P1;durP1;ratioP1;P2;durP2;ratioP2
52964;SDS011;42923;53.220;6.528;2024-02-14T00:00:09;8.88;;;7.40;;
52964;SDS011;42923;53.220;6.528;2024-02-14T00:02:45;9.70;;;8.15;;
52964;SDS011;42923;53.220;6.528;2024-02-14T00:05:14;10.48;;;7.70;;
52964;SDS011;42923;53.220;6.528;2024-02-14T00:07:40;10.38;;;7.75;;
52964;SDS011;42923;53.220;6.528;2024-02-14T00:10:06;9.95;;;8.93;;
52964;SDS011;42923;53.220;6.528;2024-02-14T00:12:33;12.05;;;10.30;;
52964;SDS011;42923;53.220;6.528;2024-02-14T00:15:00;11.45;;;10.25;;
52964;SDS011;42923;53.220;6.528;2024-02-14T00:17:26;10.73;;;9.35;;
52964;SDS011;42923;53.220;6.528;2024-02-14T00:19:52;14.18;;;11.00;;
52964;SDS011;42923;53.220;6.528;2024-02-14T00:22:18;8.85;;;7.50;;
52964;SDS011;42923;53.220;6.528;2024-02-14T00:24:43;10.10;;;8.80;;
52964;SDS011;42923;53.220;6.528;2024-02-14T00:27:10;12.03;;;9.70;;
52964;SDS011;42923;53.220;6.528;2024-02-14T00:29:35;10.63;;;9.38;;
52964;SDS011;42923;53.220;6.528;2024-02-14T00:32:01;13.57;;;11.48;;
52964;SDS011;42923;53.220;6.528;2024-02-14T00:34:27;12.23;;;10.80;;
52964;SDS011;42923;53.220;6.528;2024-02-14T00:36:53;12.30;;;11.00;;
52964;SDS011;42923;53.220;6.528;2024-02-14T00:39:18;15.03;;;13.23;;
52964;SDS011;42923;53.220;6.528;2024-02-14T00:41:46;14.70;;;13.10;;
52964;SDS011;42923;53.220;6.528;2024-02-14T00:44:12;13.93;;;12.48;;
52964;SDS011;42923;53.220;6.528;2024-02-14T00:46:42;15.88;;;14.27;;
52964;SDS011;42923;53.220;6.528;2024-02-14T00:49:09;16.05;;;14.40;;
52964;SDS011;42923;53.220;6.528;2024-02-14T00:51:35;15.32;;;13.73;;
52964;SDS011;42923;53.220;6.528;2024-02-14T00:54:03;14.77;;;13.18;;
52964;SDS011;42923;53.220;6.528;2024-02-14T00:56:29;16.40;;;14.68;;
52964;SDS011;42923;53.220;6.528;2024-02-14T00:58:55;18.52;;;14.80;;
52964;SDS011;42923;53.220;6.528;2024-02-14T01:01:22;14.70;;;13.18;;
52964;SDS011;42923;53.220;6.528;2024-02-14T01:03:48;15.52;;;13.98;;
52964;SDS011;42923;53.220;6.528;2024-02-14T01:06:14;15.20;;;13.68;;
52964;SDS011;42923;53.220;6.528;2024-02-14T01:08:41;13.38;;;12.02;;
52964;SDS011;42923;53.220;6.528;2024-02-14T01:11:10;12.93;;;10.90;;
52964;SDS011;42923;53.220;6.528;2024-02-14T01:13:36;17.67;;;15.02;;
52964;SDS011;42923;53.220;6.528;2024-02-14T01:16:02;14.65;;;12.82;;
52964;SDS011;42923;53.220;6.528;2024-02-14T01:18:33;12.88;;;11.00;;
52964;SDS011;42923;53.220;6.528;2024-02-14T01:20:58;19.10;;;16.60;;
52964;SDS011;42923;53.220;6.528;2024-02-14T01:23:25;15.83;;;14.13;;
52964;SDS011;42923;53.220;6.528;2024-02-14T01:25:51;18.23;;;15.77;;
52964;SDS011;42923;53.220;6.528;2024-02-14T01:28:19;18.90;;;15.25;;
52964;SDS011;42923;53.220;6.528;2024-02-14T01:30:45;14.30;;;12.80;;
52964;SDS011;42923;53.220;6.528;2024-02-14T01:33:11;17.20;;;15.40;;
52964;SDS011;42923;53.220;6.528;2024-02-14T01:35:37;14.20;;;12.82;;
52964;SDS011;42923;53.220;6.528;2024-02-14T01:38:03;13.30;;;11.90;;
52964;SDS011;42923;53.220;6.528;2024-02-14T01:40:29;13.73;;;12.32;;
52964;SDS011;42923;53.220;6.528;2024-02-14T01:42:54;16.23;;;14.52;;
52964;SDS011;42923;53.220;6.528;2024-02-14T01:45:21;14.83;;;13.27;;
52964;SDS011;42923;53.220;6.528;2024-02-14T01:47:47;15.02;;;13.43;;
52964;SDS011;42923;53.220;6.528;2024-02-14T01:50:15;12.88;;;11.63;;
52964;SDS011;42923;53.220;6.528;2024-02-14T01:52:41;16.13;;;13.88;;
52964;SDS011;42923;53.220;6.528;2024-02-14T01:55:09;13.75;;;12.45;;
52964;SDS011;42923;53.220;6.528;2024-02-14T01:57:37;13.65;;;12.07;;
52964;SDS011;42923;53.220;6.528;2024-02-14T02:00:05;14.07;;;12.63;;
52964;SDS011;42923;53.220;6.528;2024-02-14T02:02:37;12.95;;;11.73;;
52964;SDS011;42923;53.220;6.528;2024-02-14T02:05:10;11.23;;;10.07;;
52964;SDS011;42923;53.220;6.528;2024-02-14T02:07:36;12.77;;;11.35;;
52964;SDS011;42923;53.220;6.528;2024-02-14T02:10:05;14.07;;;12.02;;
52964;SDS011;42923;53.220;6.528;2024-02-14T02:12:31;11.88;;;10.77;;
52964;SDS011;42923;53.220;6.528;2024-02-14T02:14:57;12.38;;;11.18;;
52964;SDS011;42923;53.220;6.528;2024-02-14T02:17:24;14.32;;;12.27;;
52964;SDS011;42923;53.220;6.528;2024-02-14T02:19:49;13.57;;;12.17;;
52964;SDS011;42923;53.220;6.528;2024-02-14T02:22:18;11.02;;;9.70;;
52964;SDS011;42923;53.220;6.528;2024-02-14T02:24:44;12.33;;;10.90;;
52964;SDS011;42923;53.220;6.528;2024-02-14T02:27:10;12.65;;;11.45;;
52964;SDS011;42923;53.220;6.528;2024-02-14T02:29:38;12.10;;;10.70;;
52964;SDS011;42923;53.220;6.528;2024-02-14T02:32:04;9.50;;;8.50;;
52964;SDS011;42923;53.220;6.528;2024-02-14T02:34:31;11.52;;;10.40;;
52964;SDS011;42923;53.220;6.528;2024-02-14T02:36:57;10.57;;;9.53;;
52964;SDS011;42923;53.220;6.528;2024-02-14T02:39:23;10.83;;;9.80;;
52964;SDS011;42923;53.220;6.528;2024-02-14T02:41:50;11.93;;;10.73;;
52964;SDS011;42923;53.220;6.528;2024-02-14T02:44:16;13.53;;;10.73;;
52964;SDS011;42923;53.220;6.528;2024-02-14T02:46:42;13.20;;;11.20;;
52964;SDS011;42923;53.220;6.528;2024-02-14T02:49:10;9.90;;;8.25;;
52964;SDS011;42923;53.220;6.528;2024-02-14T02:51:39;16.60;;;12.63;;
52964;SDS011;42923;53.220;6.528;2024-02-14T02:54:04;13.03;;;11.47;;
52964;SDS011;42923;53.220;6.528;2024-02-14T02:56:30;14.90;;;11.10;;
52964;SDS011;42923;53.220;6.528;2024-02-14T02:58:58;15.35;;;12.10;;
52964;SDS011;42923;53.220;6.528;2024-02-14T03:01:24;17.13;;;13.50;;
52964;SDS011;42923;53.220;6.528;2024-02-14T03:03:56;11.88;;;10.57;;
52964;SDS011;42923;53.220;6.528;2024-02-14T03:06:23;19.05;;;13.40;;
52964;SDS011;42923;53.220;6.528;2024-02-14T03:08:49;10.63;;;9.53;;
52964;SDS011;42923;53.220;6.528;2024-02-14T03:11:17;13.02;;;11.68;;
52964;SDS011;42923;53.220;6.528;2024-02-14T03:13:43;13.67;;;10.60;;
52964;SDS011;42923;53.220;6.528;2024-02-14T03:16:09;13.82;;;11.07;;
52964;SDS011;42923;53.220;6.528;2024-02-14T03:18:36;16.08;;;11.30;;
52964;SDS011;42923;53.220;6.528;2024-02-14T03:21:03;13.90;;;10.88;;
52964;SDS011;42923;53.220;6.528;2024-02-14T03:23:31;13.23;;;10.32;;
52964;SDS011;42923;53.220;6.528;2024-02-14T03:25:57;15.40;;;10.63;;
52964;SDS011;42923;53.220;6.528;2024-02-14T03:28:23;10.07;;;8.47;;
52964;SDS011;42923;53.220;6.528;2024-02-14T03:30:50;10.77;;;8.52;;
52964;SDS011;42923;53.220;6.528;2024-02-14T03:33:15;11.38;;;8.90;;
52964;SDS011;42923;53.220;6.528;2024-02-14T03:35:41;12.73;;;9.38;;
52964;SDS011;42923;53.220;6.528;2024-02-14T03:38:07;10.38;;;8.40;;
52964;SDS011;42923;53.220;6.528;2024-02-14T03:40:35;9.98;;;7.72;;
52964;SDS011;42923;53.220;6.528;2024-02-14T03:43:03;9.82;;;8.23;;
52964;SDS011;42923;53.220;6.528;2024-02-14T03:45:30;13.15;;;9.23;;
52964;SDS011;42923;53.220;6.528;2024-02-14T03:47:55;7.82;;;7.03;;
52964;SDS011;42923;53.220;6.528;2024-02-14T03:50:22;8.50;;;6.88;;
52964;SDS011;42923;53.220;6.528;2024-02-14T03:52:48;10.70;;;7.50;;
52964;SDS011;42923;53.220;6.528;2024-02-14T03:55:14;8.83;;;7.50;;
52964;SDS011;42923;53.220;6.528;2024-02-14T03:57:42;9.48;;;8.05;;
52964;SDS011;42923;53.220;6.528;2024-02-14T04:00:10;7.85;;;6.82;;
52964;SDS011;42923;53.220;6.528;2024-02-14T04:02:39;9.70;;;8.00;;
52964;SDS011;42923;53.220;6.528;2024-02-14T04:05:05;8.68;;;7.63;;
52964;SDS011;42923;53.220;6.528;2024-02-14T04:07:32;10.75;;;8.70;;
52964;SDS011;42923;53.220;6.528;2024-02-14T04:09:59;12.90;;;9.20;;
52964;SDS011;42923;53.220;6.528;2024-02-14T04:12:25;14.50;;;10.23;;
52964;SDS011;42923;53.220;6.528;2024-02-14T04:14:51;11.88;;;8.98;;
52964;SDS011;42923;53.220;6.528;2024-02-14T04:17:16;11.00;;;9.18;;
52964;SDS011;42923;53.220;6.528;2024-02-14T04:19:42;15.82;;;11.35;;
52964;SDS011;42923;53.220;6.528;2024-02-14T04:22:08;13.90;;;10.65;;
52964;SDS011;42923;53.220;6.528;2024-02-14T04:24:34;14.98;;;10.68;;
52964;SDS011;42923;53.220;6.528;2024-02-14T04:27:00;14.18;;;10.85;;
52964;SDS011;42923;53.220;6.528;2024-02-14T04:29:28;18.23;;;11.93;;
52964;SDS011;42923;53.220;6.528;2024-02-14T04:31:56;18.60;;;12.43;;
52964;SDS011;42923;53.220;6.528;2024-02-14T04:34:22;17.02;;;11.93;;
52964;SDS011;42923;53.220;6.528;2024-02-14T04:36:48;13.27;;;10.80;;
52964;SDS011;42923;53.220;6.528;2024-02-14T04:39:13;14.18;;;10.80;;
52964;SDS011;42923;53.220;6.528;2024-02-14T04:41:39;16.13;;;11.68;;
52964;SDS011;42923;53.220;6.528;2024-02-14T04:44:05;15.87;;;11.63;;
52964;SDS011;42923;53.220;6.528;2024-02-14T04:46:33;16.70;;;10.90;;
52964;SDS011;42923;53.220;6.528;2024-02-14T04:49:00;15.80;;;11.93;;
52964;SDS011;42923;53.220;6.528;2024-02-14T04:51:28;13.68;;;10.60;;
52964;SDS011;42923;53.220;6.528;2024-02-14T04:53:55;14.00;;;10.65;;
52964;SDS011;42923;53.220;6.528;2024-02-14T04:56:24;18.02;;;11.68;;
52964;SDS011;42923;53.220;6.528;2024-02-14T04:58:52;12.32;;;10.10;;
52964;SDS011;42923;53.220;6.528;2024-02-14T05:01:18;9.75;;;8.55;;
52964;SDS011;42923;53.220;6.528;2024-02-14T05:03:44;15.30;;;10.95;;
52964;SDS011;42923;53.220;6.528;2024-02-14T05:06:09;16.27;;;11.75;;
52964;SDS011;42923;53.220;6.528;2024-02-14T05:08:36;13.77;;;9.88;;
52964;SDS011;42923;53.220;6.528;2024-02-14T05:11:01;13.90;;;10.25;;
52964;SDS011;42923;53.220;6.528;2024-02-14T05:13:29;13.82;;;10.32;;
52964;SDS011;42923;53.220;6.528;2024-02-14T05:15:55;17.13;;;11.77;;
52964;SDS011;42923;53.220;6.528;2024-02-14T05:18:21;18.92;;;12.45;;
52964;SDS011;42923;53.220;6.528;2024-02-14T05:20:47;14.18;;;10.75;;
52964;SDS011;42923;53.220;6.528;2024-02-14T05:23:13;12.35;;;9.57;;
52964;SDS011;42923;53.220;6.528;2024-02-14T05:25:38;14.07;;;9.38;;
52964;SDS011;42923;53.220;6.528;2024-02-14T05:28:04;13.80;;;9.95;;
52964;SDS011;42923;53.220;6.528;2024-02-14T05:30:30;18.50;;;11.73;;
52964;SDS011;42923;53.220;6.528;2024-02-14T05:32:57;12.30;;;9.20;;
52964;SDS011;42923;53.220;6.528;2024-02-14T05:35:22;17.83;;;10.87;;
52964;SDS011;42923;53.220;6.528;2024-02-14T05:37:49;20.83;;;11.52;;
52964;SDS011;42923;53.220;6.528;2024-02-14T05:40:14;18.65;;;11.68;;
52964;SDS011;42923;53.220;6.528;2024-02-14T05:42:40;17.70;;;10.48;;
52964;SDS011;42923;53.220;6.528;2024-02-14T05:45:07;16.65;;;10.13;;
52964;SDS011;42923;53.220;6.528;2024-02-14T05:47:35;17.58;;;10.48;;
52964;SDS011;42923;53.220;6.528;2024-02-14T05:50:00;15.80;;;10.60;;
52964;SDS011;42923;53.220;6.528;2024-02-14T05:52:26;17.40;;;11.02;;
52964;SDS011;42923;53.220;6.528;2024-02-14T05:54:52;15.55;;;10.00;;
52964;SDS011;42923;53.220;6.528;2024-02-14T05:57:19;17.23;;;10.77;;
52964;SDS011;42923;53.220;6.528;2024-02-14T05:59:45;17.42;;;10.13;;
52964;SDS011;42923;53.220;6.528;2024-02-14T06:02:10;12.37;;;8.17;;
52964;SDS011;42923;53.220;6.528;2024-02-14T06:04:36;17.17;;;10.00;;
52964;SDS011;42923;53.220;6.528;2024-02-14T06:07:02;20.20;;;10.93;;
52964;SDS011;42923;53.220;6.528;2024-02-14T06:09:30;16.08;;;9.60;;
52964;SDS011;42923;53.220;6.528;2024-02-14T06:11:56;15.60;;;8.97;;
52964;SDS011;42923;53.220;6.528;2024-02-14T06:14:22;19.20;;;9.97;;
52964;SDS011;42923;53.220;6.528;2024-02-14T06:16:47;19.58;;;9.57;;
52964;SDS011;42923;53.220;6.528;2024-02-14T06:19:13;14.38;;;9.00;;
52964;SDS011;42923;53.220;6.528;2024-02-14T06:21:39;13.15;;;8.63;;
52964;SDS011;42923;53.220;6.528;2024-02-14T06:24:04;14.60;;;8.70;;
52964;SDS011;42923;53.220;6.528;2024-02-14T06:26:31;13.33;;;8.27;;
52964;SDS011;42923;53.220;6.528;2024-02-14T06:28:58;16.42;;;8.20;;
52964;SDS011;42923;53.220;6.528;2024-02-14T06:31:24;21.00;;;9.87;;
52964;SDS011;42923;53.220;6.528;2024-02-14T06:33:50;24.83;;;11.60;;
52964;SDS011;42923;53.220;6.528;2024-02-14T06:36:16;34.20;;;13.77;;
52964;SDS011;42923;53.220;6.528;2024-02-14T06:38:41;42.80;;;14.63;;
52964;SDS011;42923;53.220;6.528;2024-02-14T06:41:08;45.10;;;14.55;;
52964;SDS011;42923;53.220;6.528;2024-02-14T06:43:34;39.95;;;14.25;;
52964;SDS011;42923;53.220;6.528;2024-02-14T06:46:01;44.08;;;15.23;;
52964;SDS011;42923;53.220;6.528;2024-02-14T06:48:27;49.45;;;15.05;;
52964;SDS011;42923;53.220;6.528;2024-02-14T06:50:52;42.83;;;13.02;;
52964;SDS011;42923;53.220;6.528;2024-02-14T06:53:20;36.47;;;12.00;;
52964;SDS011;42923;53.220;6.528;2024-02-14T06:55:46;51.53;;;15.00;;
52964;SDS011;42923;53.220;6.528;2024-02-14T06:58:12;33.67;;;10.98;;
52964;SDS011;42923;53.220;6.528;2024-02-14T07:00:37;37.80;;;12.27;;
52964;SDS011;42923;53.220;6.528;2024-02-14T07:03:03;30.97;;;11.00;;
52964;SDS011;42923;53.220;6.528;2024-02-14T07:05:29;50.25;;;12.45;;
52964;SDS011;42923;53.220;6.528;2024-02-14T07:07:55;45.88;;;14.05;;
52964;SDS011;42923;53.220;6.528;2024-02-14T07:10:21;48.10;;;12.95;;
52964;SDS011;42923;53.220;6.528;2024-02-14T07:12:47;37.50;;;11.63;;
52964;SDS011;42923;53.220;6.528;2024-02-14T07:15:13;41.30;;;12.52;;
52964;SDS011;42923;53.220;6.528;2024-02-14T07:17:39;38.13;;;11.38;;
52964;SDS011;42923;53.220;6.528;2024-02-14T07:20:05;42.75;;;10.85;;
52964;SDS011;42923;53.220;6.528;2024-02-14T07:22:34;44.22;;;12.20;;
52964;SDS011;42923;53.220;6.528;2024-02-14T07:25:00;37.08;;;10.88;;
52964;SDS011;42923;53.220;6.528;2024-02-14T07:27:26;44.00;;;11.23;;
52964;SDS011;42923;53.220;6.528;2024-02-14T07:29:52;62.90;;;13.50;;
52964;SDS011;42923;53.220;6.528;2024-02-14T07:32:18;56.20;;;11.97;;
52964;SDS011;42923;53.220;6.528;2024-02-14T07:34:44;41.80;;;11.70;;
52964;SDS011;42923;53.220;6.528;2024-02-14T07:37:09;37.20;;;10.97;;
52964;SDS011;42923;53.220;6.528;2024-02-14T07:39:35;47.53;;;11.27;;
52964;SDS011;42923;53.220;6.528;2024-02-14T07:42:01;48.70;;;10.77;;
52964;SDS011;42923;53.220;6.528;2024-02-14T07:44:27;51.50;;;10.90;;
52964;SDS011;42923;53.220;6.528;2024-02-14T07:46:53;48.60;;;12.47;;
52964;SDS011;42923;53.220;6.528;2024-02-14T07:49:19;43.43;;;10.67;;
52964;SDS011;42923;53.220;6.528;2024-02-14T07:51:45;50.57;;;11.23;;
52964;SDS011;42923;53.220;6.528;2024-02-14T07:54:11;53.53;;;11.50;;
52964;SDS011;42923;53.220;6.528;2024-02-14T07:56:36;43.53;;;10.63;;
52964;SDS011;42923;53.220;6.528;2024-02-14T07:59:02;42.50;;;10.83;;
52964;SDS011;42923;53.220;6.528;2024-02-14T08:01:30;43.92;;;11.45;;
52964;SDS011;42923;53.220;6.528;2024-02-14T08:03:57;45.73;;;11.67;;
52964;SDS011;42923;53.220;6.528;2024-02-14T08:06:23;57.47;;;12.35;;
52964;SDS011;42923;53.220;6.528;2024-02-14T08:08:49;56.80;;;12.48;;
52964;SDS011;42923;53.220;6.528;2024-02-14T08:11:19;48.67;;;11.43;;
52964;SDS011;42923;53.220;6.528;2024-02-14T08:13:45;52.92;;;11.75;;
52964;SDS011;42923;53.220;6.528;2024-02-14T08:16:11;50.50;;;12.07;;
52964;SDS011;42923;53.220;6.528;2024-02-14T08:18:37;52.50;;;11.57;;
52964;SDS011;42923;53.220;6.528;2024-02-14T08:21:05;50.33;;;11.45;;
52964;SDS011;42923;53.220;6.528;2024-02-14T08:23:31;44.83;;;11.23;;
52964;SDS011;42923;53.220;6.528;2024-02-14T08:25:57;56.08;;;11.80;;
52964;SDS011;42923;53.220;6.528;2024-02-14T08:28:23;27.90;;;8.63;;
52964;SDS011;42923;53.220;6.528;2024-02-14T08:30:48;51.33;;;11.67;;
52964;SDS011;42923;53.220;6.528;2024-02-14T08:33:14;55.03;;;12.38;;
52964;SDS011;42923;53.220;6.528;2024-02-14T08:35:40;32.58;;;10.40;;
52964;SDS011;42923;53.220;6.528;2024-02-14T08:38:05;45.72;;;10.30;;
52964;SDS011;42923;53.220;6.528;2024-02-14T08:40:32;52.97;;;12.13;;
52964;SDS011;42923;53.220;6.528;2024-02-14T08:42:57;42.30;;;11.35;;
52964;SDS011;42923;53.220;6.528;2024-02-14T08:45:24;47.45;;;11.98;;
52964;SDS011;42923;53.220;6.528;2024-02-14T08:47:50;37.83;;;10.50;;
52964;SDS011;42923;53.220;6.528;2024-02-14T08:50:16;38.35;;;10.32;;
52964;SDS011;42923;53.220;6.528;2024-02-14T08:52:42;52.00;;;12.18;;
52964;SDS011;42923;53.220;6.528;2024-02-14T08:55:08;35.05;;;10.48;;
52964;SDS011;42923;53.220;6.528;2024-02-14T08:57:40;30.45;;;9.05;;
52964;SDS011;42923;53.220;6.528;2024-02-14T09:00:06;39.90;;;10.82;;
52964;SDS011;42923;53.220;6.528;2024-02-14T09:02:32;40.90;;;11.10;;
52964;SDS011;42923;53.220;6.528;2024-02-14T09:05:00;35.70;;;11.40;;
52964;SDS011;42923;53.220;6.528;2024-02-14T09:07:26;33.88;;;11.02;;
52964;SDS011;42923;53.220;6.528;2024-02-14T09:09:52;32.97;;;10.93;;
52964;SDS011;42923;53.220;6.528;2024-02-14T09:12:18;35.50;;;11.10;;
52964;SDS011;42923;53.220;6.528;2024-02-14T09:14:43;35.10;;;11.97;;
52964;SDS011;42923;53.220;6.528;2024-02-14T09:17:09;30.65;;;11.55;;
52964;SDS011;42923;53.220;6.528;2024-02-14T09:19:35;37.17;;;13.77;;
52964;SDS011;42923;53.220;6.528;2024-02-14T09:22:02;40.10;;;15.40;;
52964;SDS011;42923;53.220;6.528;2024-02-14T09:24:31;43.20;;;16.13;;
52964;SDS011;42923;53.220;6.528;2024-02-14T09:26:57;44.63;;;16.38;;
52964;SDS011;42923;53.220;6.528;2024-02-14T09:29:24;41.85;;;17.33;;
52964;SDS011;42923;53.220;6.528;2024-02-14T09:31:53;42.13;;;17.98;;
52964;SDS011;42923;53.220;6.528;2024-02-14T09:34:19;42.92;;;18.10;;
52964;SDS011;42923;53.220;6.528;2024-02-14T09:36:47;41.20;;;16.23;;
52964;SDS011;42923;53.220;6.528;2024-02-14T09:39:14;32.40;;;12.57;;
52964;SDS011;42923;53.220;6.528;2024-02-14T09:41:42;39.17;;;15.25;;
52964;SDS011;42923;53.220;6.528;2024-02-14T09:44:12;33.22;;;13.27;;
52964;SDS011;42923;53.220;6.528;2024-02-14T09:46:38;45.17;;;18.23;;
52964;SDS011;42923;53.220;6.528;2024-02-14T09:49:05;41.20;;;15.98;;
52964;SDS011;42923;53.220;6.528;2024-02-14T09:51:31;34.97;;;13.60;;
52964;SDS011;42923;53.220;6.528;2024-02-14T09:53:59;51.60;;;16.25;;
52964;SDS011;42923;53.220;6.528;2024-02-14T09:56:26;34.53;;;13.10;;
52964;SDS011;42923;53.220;6.528;2024-02-14T09:58:53;31.25;;;12.60;;
52964;SDS011;42923;53.220;6.528;2024-02-14T10:01:25;41.75;;;14.93;;
52964;SDS011;42923;53.220;6.528;2024-02-14T10:03:52;37.37;;;14.03;;
52964;SDS011;42923;53.220;6.528;2024-02-14T10:06:19;36.97;;;13.90;;
52964;SDS011;42923;53.220;6.528;2024-02-14T10:08:46;32.15;;;13.25;;
52964;SDS011;42923;53.220;6.528;2024-02-14T10:11:13;28.53;;;12.33;;
52964;SDS011;42923;53.220;6.528;2024-02-14T10:13:40;29.92;;;11.73;;
52964;SDS011;42923;53.220;6.528;2024-02-14T10:16:13;26.70;;;10.27;;
52964;SDS011;42923;53.220;6.528;2024-02-14T10:18:39;37.10;;;13.35;;
52964;SDS011;42923;53.220;6.528;2024-02-14T10:21:05;26.85;;;11.48;;
52964;SDS011;42923;53.220;6.528;2024-02-14T10:23:33;29.75;;;11.73;;
52964;SDS011;42923;53.220;6.528;2024-02-14T10:25:59;20.10;;;9.70;;
52964;SDS011;42923;53.220;6.528;2024-02-14T10:28:26;26.73;;;11.33;;
52964;SDS011;42923;53.220;6.528;2024-02-14T10:30:51;25.03;;;10.53;;
52964;SDS011;42923;53.220;6.528;2024-02-14T10:33:20;21.33;;;9.82;;
52964;SDS011;42923;53.220;6.528;2024-02-14T10:35:46;20.40;;;9.98;;
52964;SDS011;42923;53.220;6.528;2024-02-14T10:38:14;24.65;;;10.80;;
52964;SDS011;42923;53.220;6.528;2024-02-14T10:40:43;23.40;;;12.03;;
52964;SDS011;42923;53.220;6.528;2024-02-14T10:43:12;22.52;;;11.70;;
52964;SDS011;42923;53.220;6.528;2024-02-14T10:45:38;15.30;;;8.63;;
52964;SDS011;42923;53.220;6.528;2024-02-14T10:48:12;20.48;;;10.18;;
52964;SDS011;42923;53.220;6.528;2024-02-14T10:50:43;13.07;;;8.18;;
52964;SDS011;42923;53.220;6.528;2024-02-14T10:53:14;22.23;;;9.65;;
52964;SDS011;42923;53.220;6.528;2024-02-14T10:55:45;12.25;;;7.38;;
52964;SDS011;42923;53.220;6.528;2024-02-14T10:58:13;10.15;;;6.47;;
52964;SDS011;42923;53.220;6.528;2024-02-14T11:00:41;9.32;;;6.07;;
52964;SDS011;42923;53.220;6.528;2024-02-14T11:03:08;14.23;;;5.88;;
52964;SDS011;42923;53.220;6.528;2024-02-14T11:05:48;7.07;;;4.78;;
52964;SDS011;42923;53.220;6.528;2024-02-14T11:08:15;9.52;;;5.80;;
52964;SDS011;42923;53.220;6.528;2024-02-14T11:10:55;11.57;;;6.60;;
52964;SDS011;42923;53.220;6.528;2024-02-14T11:13:26;8.43;;;5.97;;
52964;SDS011;42923;53.220;6.528;2024-02-14T11:15:54;12.07;;;6.60;;
52964;SDS011;42923;53.220;6.528;2024-02-14T11:18:24;15.70;;;7.28;;
52964;SDS011;42923;53.220;6.528;2024-02-14T11:20:51;13.13;;;7.53;;
52964;SDS011;42923;53.220;6.528;2024-02-14T11:23:21;14.25;;;8.15;;
52964;SDS011;42923;53.220;6.528;2024-02-14T11:25:47;13.47;;;8.27;;
52964;SDS011;42923;53.220;6.528;2024-02-14T11:28:14;15.10;;;8.60;;
52964;SDS011;42923;53.220;6.528;2024-02-14T11:30:48;15.63;;;8.65;;
52964;SDS011;42923;53.220;6.528;2024-02-14T11:33:18;13.33;;;8.23;;
52964;SDS011;42923;53.220;6.528;2024-02-14T11:35:46;12.97;;;7.57;;
52964;SDS011;42923;53.220;6.528;2024-02-14T11:38:13;11.75;;;7.85;;
52964;SDS011;42923;53.220;6.528;2024-02-14T11:40:39;13.23;;;8.33;;
52964;SDS011;42923;53.220;6.528;2024-02-14T11:43:12;10.43;;;6.30;;
52964;SDS011;42923;53.220;6.528;2024-02-14T11:45:40;11.30;;;7.93;;
52964;SDS011;42923;53.220;6.528;2024-02-14T11:48:13;13.30;;;8.27;;
52964;SDS011;42923;53.220;6.528;2024-02-14T11:50:40;10.45;;;7.88;;
52964;SDS011;42923;53.220;6.528;2024-02-14T11:53:07;9.85;;;7.30;;
52964;SDS011;42923;53.220;6.528;2024-02-14T11:55:39;12.73;;;7.80;;
52964;SDS011;42923;53.220;6.528;2024-02-14T11:58:17;10.87;;;6.83;;
52964;SDS011;42923;53.220;6.528;2024-02-14T12:00:44;8.85;;;6.28;;
52964;SDS011;42923;53.220;6.528;2024-02-14T12:03:18;6.95;;;4.25;;
52964;SDS011;42923;53.220;6.528;2024-02-14T12:05:46;8.68;;;5.80;;
52964;SDS011;42923;53.220;6.528;2024-02-14T12:08:13;7.77;;;5.57;;
52964;SDS011;42923;53.220;6.528;2024-02-14T12:10:42;8.43;;;5.13;;
52964;SDS011;42923;53.220;6.528;2024-02-14T12:13:08;7.88;;;5.50;;
52964;SDS011;42923;53.220;6.528;2024-02-14T12:15:46;5.40;;;4.28;;
52964;SDS011;42923;53.220;6.528;2024-02-14T12:18:13;5.63;;;4.57;;
52964;SDS011;42923;53.220;6.528;2024-02-14T12:20:39;8.15;;;5.03;;
52964;SDS011;42923;53.220;6.528;2024-02-14T12:23:06;7.00;;;4.90;;
52964;SDS011;42923;53.220;6.528;2024-02-14T12:25:32;6.03;;;4.60;;
52964;SDS011;42923;53.220;6.528;2024-02-14T12:27:58;4.43;;;3.95;;
52964;SDS011;42923;53.220;6.528;2024-02-14T12:33:23;6.72;;;4.47;;
52964;SDS011;42923;53.220;6.528;2024-02-14T12:35:50;7.93;;;5.30;;
52964;SDS011;42923;53.220;6.528;2024-02-14T12:38:18;8.02;;;5.63;;
52964;SDS011;42923;53.220;6.528;2024-02-14T12:40:45;5.40;;;4.38;;
52964;SDS011;42923;53.220;6.528;2024-02-14T12:43:12;9.38;;;6.03;;
52964;SDS011;42923;53.220;6.528;2024-02-14T12:45:40;9.45;;;6.60;;
52964;SDS011;42923;53.220;6.528;2024-02-14T12:48:06;9.15;;;6.82;;
52964;SDS011;42923;53.220;6.528;2024-02-14T12:50:33;12.30;;;7.65;;
52964;SDS011;42923;53.220;6.528;2024-02-14T12:53:00;9.98;;;6.35;;
52964;SDS011;42923;53.220;6.528;2024-02-14T12:55:27;9.27;;;6.80;;
52964;SDS011;42923;53.220;6.528;2024-02-14T12:57:56;9.80;;;6.67;;
52964;SDS011;42923;53.220;6.528;2024-02-14T13:00:23;10.77;;;6.80;;
52964;SDS011;42923;53.220;6.528;2024-02-14T13:02:49;6.85;;;5.88;;
52964;SDS011;42923;53.220;6.528;2024-02-14T13:05:15;7.28;;;6.38;;
52964;SDS011;42923;53.220;6.528;2024-02-14T13:07:41;9.45;;;7.00;;
52964;SDS011;42923;53.220;6.528;2024-02-14T13:10:08;8.00;;;6.53;;
52964;SDS011;42923;53.220;6.528;2024-02-14T13:12:35;6.85;;;6.15;;
52964;SDS011;42923;53.220;6.528;2024-02-14T13:15:02;7.50;;;5.95;;
52964;SDS011;42923;53.220;6.528;2024-02-14T13:17:29;7.25;;;6.53;;
52964;SDS011;42923;53.220;6.528;2024-02-14T13:19:55;7.97;;;6.73;;
52964;SDS011;42923;53.220;6.528;2024-02-14T13:22:20;7.10;;;6.40;;
52964;SDS011;42923;53.220;6.528;2024-02-14T13:24:46;7.55;;;6.13;;
52964;SDS011;42923;53.220;6.528;2024-02-14T13:27:12;5.78;;;5.07;;
52964;SDS011;42923;53.220;6.528;2024-02-14T13:29:39;7.80;;;7.00;;
52964;SDS011;42923;53.220;6.528;2024-02-14T13:32:05;8.00;;;7.15;;
52964;SDS011;42923;53.220;6.528;2024-02-14T13:34:33;10.25;;;7.78;;
52964;SDS011;42923;53.220;6.528;2024-02-14T13:36:59;7.85;;;7.05;;
52964;SDS011;42923;53.220;6.528;2024-02-14T13:39:25;8.35;;;7.50;;
52964;SDS011;42923;53.220;6.528;2024-02-14T13:41:51;9.52;;;8.38;;
52964;SDS011;42923;53.220;6.528;2024-02-14T13:44:17;8.77;;;7.38;;
52964;SDS011;42923;53.220;6.528;2024-02-14T13:46:43;10.48;;;8.98;;
52964;SDS011;42923;53.220;6.528;2024-02-14T13:49:10;9.55;;;8.05;;
52964;SDS011;42923;53.220;6.528;2024-02-14T13:51:38;10.32;;;7.20;;
52964;SDS011;42923;53.220;6.528;2024-02-14T13:54:04;9.70;;;8.10;;
52964;SDS011;42923;53.220;6.528;2024-02-14T13:56:31;10.25;;;8.55;;
52964;SDS011;42923;53.220;6.528;2024-02-14T13:58:57;13.98;;;10.43;;
52964;SDS011;42923;53.220;6.528;2024-02-14T14:01:24;16.40;;;11.13;;
52964;SDS011;42923;53.220;6.528;2024-02-14T14:03:51;16.17;;;11.50;;
52964;SDS011;42923;53.220;6.528;2024-02-14T14:06:20;15.98;;;12.38;;
52964;SDS011;42923;53.220;6.528;2024-02-14T14:08:49;14.98;;;10.27;;
52964;SDS011;42923;53.220;6.528;2024-02-14T14:11:15;12.80;;;10.65;;
52964;SDS011;42923;53.220;6.528;2024-02-14T14:13:41;17.77;;;12.75;;
52964;SDS011;42923;53.220;6.528;2024-02-14T14:16:07;12.32;;;10.98;;
52964;SDS011;42923;53.220;6.528;2024-02-14T14:18:33;16.27;;;12.63;;
52964;SDS011;42923;53.220;6.528;2024-02-14T14:21:00;16.85;;;13.70;;
52964;SDS011;42923;53.220;6.528;2024-02-14T14:23:25;15.67;;;13.37;;
52964;SDS011;42923;53.220;6.528;2024-02-14T14:25:51;20.87;;;15.60;;
52964;SDS011;42923;53.220;6.528;2024-02-14T14:28:17;16.88;;;14.70;;